TimeMST,TemperatureF,Dew PointF,Humidity,Sea Level PressureIn,VisibilityMPH,Wind Direction,Wind SpeedMPH,Gust SpeedMPH,PrecipitationIn,Events,Conditions,WindDirDegrees,DateUTC
12:55 AM,27.0,19.9,75,30.19,10.0,WSW,9.2,-,N/A,,Clear,240,2013-01-09 07:55:00
1:55 AM,25.0,18.0,75,30.20,10.0,West,6.9,-,N/A,,Clear,270,2013-01-09 08:55:00
2:55 AM,23.0,18.0,81,30.20,10.0,West,6.9,-,N/A,,Clear,280,2013-01-09 09:55:00
3:55 AM,21.9,18.0,85,30.19,10.0,West,3.5,-,N/A,,Clear,280,2013-01-09 10:55:00
4:55 AM,19.0,16.0,88,30.18,10.0,Calm,Calm,-,N/A,,Clear,0,2013-01-09 11:55:00
5:55 AM,19.9,17.1,89,30.17,10.0,Calm,Calm,-,N/A,,Clear,0,2013-01-09 12:55:00
6:55 AM,19.0,16.0,88,30.18,10.0,Calm,Calm,-,N/A,,Clear,0,2013-01-09 13:55:00
7:55 AM,21.0,18.0,88,30.20,10.0,SE,4.6,-,N/A,,Clear,130,2013-01-09 14:55:00
8:55 AM,24.1,19.9,84,30.21,10.0,East,3.5,-,N/A,,Clear,100,2013-01-09 15:55:00
9:55 AM,33.1,25.0,72,30.19,10.0,SE,3.5,-,N/A,,Clear,130,2013-01-09 16:55:00
10:55 AM,45.0,28.9,53,30.16,10.0,South,8.1,-,N/A,,Clear,180,2013-01-09 17:55:00
11:55 AM,51.1,28.0,41,30.12,10.0,SSW,13.8,-,N/A,,Clear,210,2013-01-09 18:55:00
12:55 PM,53.1,28.9,40,30.10,10.0,SSW,11.5,-,N/A,,Clear,200,2013-01-09 19:55:00
1:55 PM,55.0,28.9,37,30.09,10.0,SSW,11.5,-,N/A,,Clear,210,2013-01-09 20:55:00
2:55 PM,52.0,30.0,43,30.09,10.0,South,11.5,-,N/A,,Clear,190,2013-01-09 21:55:00
3:55 PM,50.0,30.0,46,30.07,10.0,ESE,5.8,-,N/A,,Clear,110,2013-01-09 22:55:00
4:55 PM,44.1,28.9,55,30.06,10.0,ESE,3.5,-,N/A,,Clear,120,2013-01-09 23:55:00
5:55 PM,41.0,28.9,62,30.05,10.0,South,4.6,-,N/A,,Clear,170,2013-01-10 00:55:00
6:55 PM,43.0,28.9,58,30.03,10.0,South,6.9,-,N/A,,Clear,190,2013-01-10 01:55:00
7:55 PM,37.9,28.0,68,30.01,10.0,SSW,5.8,-,N/A,,Clear,210,2013-01-10 02:55:00
8:55 PM,42.1,28.0,58,29.99,10.0,SW,6.9,-,N/A,,Clear,230,2013-01-10 03:55:00
9:55 PM,42.1,28.9,60,29.97,10.0,WSW,6.9,-,N/A,,Clear,240,2013-01-10 04:55:00
10:55 PM,42.1,28.0,58,29.94,10.0,WNW,4.6,-,N/A,,Clear,290,2013-01-10 05:55:00
11:55 PM,44.1,27.0,51,29.89,10.0,SW,9.2,-,N/A,,Clear,220,2013-01-10 06:55:00